Time;durP1;ratioP1;P1;durP2;ratioP2;P2;SDS_P1;SDS_P2;PMS_P1;PMS_P2;Temp;Humidity;BMP_temperature;BMP_pressure;BME280_temperature;BME280_humidity;BME280_pressure;Samples;Min_cycle;Max_cycle;Signal;HPM_P1;HPM_P2
2022/06/06 00:01:56;;;;;;;12.25;11.05;;;22.20;99.90;;;;;;4248536;27;20209;-79
2022/06/06 00:03:59;;;;;;;12.02;10.82;;;22.20;99.90;;;;;;4248183;27;20249;-79
2022/06/06 00:06:01;;;;;;;12.73;11.52;;;22.20;99.90;;;;;;4242512;27;20263;-79
2022/06/06 00:08:04;;;;;;;12.20;10.88;;;22.20;99.90;;;;;;4244960;27;20277;-80
2022/06/06 00:10:07;;;;;;;11.50;10.30;;;22.20;99.90;;;;;;4248314;27;20221;-80
2022/06/06 00:12:14;;;;;;;11.75;10.60;;;22.10;99.90;;;;;;4248139;27;20217;-79
2022/06/06 00:14:18;;;;;;;11.85;10.75;;;22.20;99.90;;;;;;4247781;27;20213;-80
2022/06/06 00:16:20;;;;;;;11.88;10.68;;;22.10;99.90;;;;;;4247413;27;20262;-79
2022/06/06 00:18:23;;;;;;;12.15;10.95;;;22.20;99.90;;;;;;4242946;27;20991;-79
2022/06/06 00:20:25;;;;;;;11.98;10.80;;;22.10;99.90;;;;;;4248080;27;20706;-80
2022/06/06 00:22:28;;;;;;;12.13;10.93;;;22.20;99.90;;;;;;4248133;27;20254;-79
2022/06/06 00:24:30;;;;;;;12.23;11.02;;;22.20;99.90;;;;;;4247789;27;20316;-79
2022/06/06 00:26:33;;;;;;;11.50;10.35;;;22.20;99.90;;;;;;4247602;27;20209;-79
2022/06/06 00:28:38;;;;;;;12.40;11.20;;;22.10;99.90;;;;;;4247617;27;20270;-79
2022/06/06 00:30:41;;;;;;;12.20;10.82;;;22.10;99.90;;;;;;4247069;27;20264;-79
2022/06/06 00:35:04;;;;;;;11.20;10.10;;;22.20;99.90;;;;;;4247134;27;20587;-80
2022/06/06 00:37:09;;;;;;;11.98;10.77;;;22.10;99.90;;;;;;4233161;27;20217;-80
2022/06/06 00:39:13;;;;;;;11.25;10.10;;;22.20;99.90;;;;;;4234805;27;20216;-80
2022/06/06 00:41:16;;;;;;;11.45;10.32;;;22.10;99.90;;;;;;4232186;27;20221;-78
2022/06/06 00:43:18;;;;;;;11.85;10.63;;;22.10;99.90;;;;;;4247793;27;20225;-79
2022/06/06 00:45:30;;;;;;;11.18;10.18;;;22.10;99.90;;;;;;4247385;27;20274;-79
2022/06/06 00:47:32;;;;;;;10.52;9.57;;;22.10;99.90;;;;;;4247449;27;20213;-80
2022/06/06 00:49:38;;;;;;;10.93;9.82;;;22.10;99.90;;;;;;4247292;27;20242;-79
2022/06/06 00:51:41;;;;;;;11.40;10.25;;;22.10;99.90;;;;;;4237546;27;20211;-80
2022/06/06 00:53:47;;;;;;;12.25;10.60;;;22.10;99.90;;;;;;4247038;27;20234;-80
2022/06/06 00:55:54;;;;;;;10.25;9.35;;;22.10;99.90;;;;;;4247533;27;20213;-79
2022/06/06 00:57:59;;;;;;;11.32;10.23;;;22.10;99.90;;;;;;4247315;27;20236;-80
2022/06/06 01:00:05;;;;;;;11.00;10.00;;;22.10;99.90;;;;;;4245142;27;20205;-80
2022/06/06 01:02:12;;;;;;;11.55;10.35;;;22.10;99.90;;;;;;4246864;27;20213;-80
2022/06/06 01:04:16;;;;;;;10.75;9.65;;;22.10;99.90;;;;;;4246945;27;20213;-79
2022/06/06 01:06:22;;;;;;;11.00;9.90;;;22.10;99.90;;;;;;4235383;27;20213;-80
2022/06/06 01:08:25;;;;;;;11.35;9.45;;;22.10;99.90;;;;;;4246621;27;20286;-79
2022/06/06 01:10:28;;;;;;;10.90;9.80;;;22.00;99.90;;;;;;4246974;27;21031;-80
2022/06/06 01:12:33;;;;;;;10.43;9.52;;;22.10;99.90;;;;;;4247170;27;20258;-79
2022/06/06 01:14:39;;;;;;;10.77;9.65;;;22.00;99.90;;;;;;4246682;27;20274;-79
2022/06/06 01:16:51;;;;;;;10.52;9.50;;;22.00;99.90;;;;;;4238533;27;20260;-80
2022/06/06 01:19:03;;;;;;;10.93;9.77;;;22.00;99.90;;;;;;4233900;27;20233;-79
2022/06/06 01:21:28;;;;;;;11.00;9.90;;;22.00;99.90;;;;;;4235961;27;20242;-80
2022/06/06 01:23:53;;;;;;;10.55;9.55;;;22.00;99.90;;;;;;4247016;27;20971;-79
2022/06/06 01:26:24;;;;;;;11.27;10.18;;;22.00;99.90;;;;;;4246562;27;20634;-80
2022/06/06 01:28:46;;;;;;;11.38;10.27;;;22.00;99.90;;;;;;4235203;27;20221;-79
2022/06/06 01:30:55;;;;;;;11.25;10.15;;;22.00;99.90;;;;;;4246609;27;20669;-79
2022/06/06 01:33:01;;;;;;;12.57;10.02;;;22.00;99.90;;;;;;4246694;27;20265;-79
2022/06/06 01:35:05;;;;;;;10.40;9.25;;;22.00;99.90;;;;;;4246554;27;20745;-80
2022/06/06 01:37:24;;;;;;;10.40;9.40;;;22.00;99.90;;;;;;4246236;27;20224;-79
2022/06/06 01:39:30;;;;;;;10.48;9.38;;;22.00;99.90;;;;;;4236052;27;20241;-80
2022/06/06 01:41:40;;;;;;;10.88;9.20;;;22.00;99.90;;;;;;4246618;27;20217;-80
2022/06/06 01:43:49;;;;;;;10.70;9.60;;;22.00;99.90;;;;;;4246722;27;21002;-79
2022/06/06 01:45:57;;;;;;;10.50;9.48;;;21.90;99.90;;;;;;4246398;27;20216;-79
2022/06/06 01:48:04;;;;;;;9.82;8.93;;;22.00;99.90;;;;;;4246553;27;20212;-79
2022/06/06 01:50:08;;;;;;;11.63;10.43;;;21.90;99.90;;;;;;4246421;27;20568;-79
2022/06/06 01:52:13;;;;;;;10.18;9.18;;;21.90;99.90;;;;;;4246212;27;20213;-79
2022/06/06 01:54:17;;;;;;;10.55;9.43;;;21.90;99.90;;;;;;4239333;28;20508;-80
2022/06/06 01:56:23;;;;;;;10.80;9.57;;;21.90;99.90;;;;;;4246181;27;20213;-79
2022/06/06 01:58:30;;;;;;;10.50;9.38;;;21.90;99.90;;;;;;4228281;28;20729;-79
2022/06/06 02:00:37;;;;;;;10.65;9.65;;;21.90;99.90;;;;;;4246301;27;20717;-79
2022/06/06 02:02:40;;;;;;;9.80;8.90;;;21.90;99.90;;;;;;4246429;27;20258;-80
2022/06/06 02:04:42;;;;;;;10.90;9.80;;;21.90;99.90;;;;;;4245620;27;20266;-79
2022/06/06 02:06:45;;;;;;;10.65;9.50;;;21.90;99.90;;;;;;4238993;27;20246;-79
2022/06/06 02:08:50;;;;;;;10.43;9.52;;;21.90;99.90;;;;;;4246462;27;20267;-79
2022/06/06 02:10:53;;;;;;;10.77;9.68;;;21.90;99.90;;;;;;4245844;28;20213;-75
2022/06/06 02:12:55;;;;;;;9.85;8.85;;;21.90;99.90;;;;;;4245415;27;20258;-75
2022/06/06 02:14:57;;;;;;;9.70;8.70;;;21.90;99.90;;;;;;4248977;27;20261;-75
2022/06/06 02:17:01;;;;;;;9.70;8.70;;;21.90;99.90;;;;;;4249195;27;20258;-74
2022/06/06 02:19:03;;;;;;;9.88;8.90;;;21.90;99.90;;;;;;4237177;27;21027;-74
2022/06/06 02:21:06;;;;;;;10.05;9.05;;;21.90;99.90;;;;;;4248488;27;20283;-75
2022/06/06 02:23:08;;;;;;;10.32;8.90;;;21.90;99.90;;;;;;4238222;27;20216;-75
2022/06/06 02:25:12;;;;;;;9.55;8.60;;;21.90;99.90;;;;;;4248927;27;20224;-74
2022/06/06 02:27:14;;;;;;;10.40;9.40;;;21.90;99.90;;;;;;4249324;27;20277;-74
2022/06/06 02:29:17;;;;;;;10.32;9.05;;;21.90;99.90;;;;;;4248785;27;20217;-75
2022/06/06 02:31:19;;;;;;;9.65;8.75;;;21.80;99.90;;;;;;4249204;27;20224;-74
2022/06/06 02:33:23;;;;;;;9.98;8.98;;;21.90;99.90;;;;;;4249312;27;20258;-75
2022/06/06 02:35:27;;;;;;;9.45;8.60;;;21.80;99.90;;;;;;4248885;27;20213;-74
2022/06/06 02:37:30;;;;;;;9.20;8.40;;;21.90;99.90;;;;;;4241242;27;20209;-75
2022/06/06 02:39:33;;;;;;;10.10;9.10;;;21.80;99.90;;;;;;4249186;27;20233;-75
2022/06/06 02:41:36;;;;;;;9.80;8.80;;;21.80;99.90;;;;;;4248812;27;20205;-75
2022/06/06 02:43:40;;;;;;;10.57;9.45;;;21.80;99.90;;;;;;4249138;27;20212;-74
2022/06/06 02:45:46;;;;;;;9.73;8.73;;;21.80;99.90;;;;;;4249007;27;20221;-75
2022/06/06 02:47:51;;;;;;;9.90;8.90;;;21.80;99.90;;;;;;4248918;27;20250;-75
2022/06/06 02:49:54;;;;;;;10.32;8.98;;;21.80;99.90;;;;;;4249173;27;20205;-74
2022/06/06 02:51:57;;;;;;;9.55;8.52;;;21.80;99.90;;;;;;4249031;27;20213;-74
2022/06/06 02:54:01;;;;;;;9.60;8.70;;;21.80;99.90;;;;;;4248647;27;20205;-74
2022/06/06 02:56:05;;;;;;;9.52;8.55;;;21.80;99.90;;;;;;4248602;27;20630;-75
2022/06/06 02:58:07;;;;;;;9.35;8.43;;;21.80;99.90;;;;;;4248729;27;20209;-74
2022/06/06 03:00:12;;;;;;;9.15;8.10;;;21.80;99.90;;;;;;4248130;27;20254;-75
2022/06/06 03:02:15;;;;;;;8.70;7.57;;;21.80;99.90;;;;;;4248291;27;20270;-74
2022/06/06 03:04:18;;;;;;;9.82;8.85;;;21.80;99.90;;;;;;4243015;27;20221;-75
2022/06/06 03:06:41;;;;;;;9.18;8.30;;;21.80;99.90;;;;;;4244987;27;20212;-74
2022/06/06 03:08:55;;;;;;;9.27;8.40;;;21.80;99.90;;;;;;4244016;28;20209;-74
2022/06/06 03:11:08;;;;;;;8.60;7.80;;;21.80;99.90;;;;;;4247376;27;20269;-74
2022/06/06 03:13:24;;;;;;;8.88;7.97;;;21.80;99.90;;;;;;4247307;27;20213;-74
2022/06/06 03:15:38;;;;;;;8.93;7.93;;;21.80;99.90;;;;;;4247511;27;20288;-75
2022/06/06 03:20:47;;;;;;;9.10;8.20;;;21.80;99.90;;;;;;4241958;28;20630;-75
2022/06/06 03:23:11;;;;;;;9.55;8.65;;;21.70;99.90;;;;;;4247328;27;20557;-74
2022/06/06 03:25:25;;;;;;;8.60;7.70;;;21.70;99.90;;;;;;4247330;27;20220;-74
2022/06/06 03:27:37;;;;;;;9.13;8.20;;;21.70;99.90;;;;;;4247205;27;20217;-74
2022/06/06 03:29:55;;;;;;;8.85;7.90;;;21.70;99.90;;;;;;4247135;27;20557;-75
2022/06/06 03:32:06;;;;;;;8.63;7.55;;;21.70;99.90;;;;;;4247332;27;20691;-75
2022/06/06 03:34:19;;;;;;;8.40;7.38;;;21.70;99.90;;;;;;4246727;27;20269;-75
2022/06/06 03:36:29;;;;;;;8.18;7.38;;;21.70;99.90;;;;;;4247292;27;20246;-75
2022/06/06 03:38:40;;;;;;;8.02;7.32;;;21.70;99.90;;;;;;4247285;27;20221;-75
2022/06/06 03:40:55;;;;;;;8.20;7.40;;;21.70;99.90;;;;;;4246995;27;20274;-75
2022/06/06 03:43:04;;;;;;;8.38;7.47;;;21.70;99.90;;;;;;4247030;28;20269;-75
2022/06/06 03:45:21;;;;;;;9.07;7.65;;;21.70;99.90;;;;;;4234529;28;20607;-75
2022/06/06 03:47:33;;;;;;;8.52;7.80;;;21.70;99.90;;;;;;4234825;27;20598;-74
2022/06/06 03:49:46;;;;;;;8.63;7.72;;;21.70;99.90;;;;;;4246730;27;20209;-75
2022/06/06 03:51:59;;;;;;;8.27;7.38;;;21.70;99.90;;;;;;4247134;27;20225;-75
2022/06/06 03:54:14;;;;;;;8.73;7.78;;;21.70;99.90;;;;;;4247045;27;20204;-75
2022/06/06 03:56:29;;;;;;;8.75;7.95;;;21.60;99.90;;;;;;4241464;27;20258;-75
2022/06/06 03:58:34;;;;;;;8.57;7.30;;;21.70;99.90;;;;;;4246582;27;20661;-75
2022/06/06 04:00:36;;;;;;;7.75;7.10;;;21.70;99.90;;;;;;4246719;27;20639;-75
2022/06/06 04:02:41;;;;;;;8.30;7.47;;;21.70;99.90;;;;;;4246930;28;20216;-75
2022/06/06 04:04:44;;;;;;;8.00;7.05;;;21.70;99.90;;;;;;4256423;27;20212;-74
2022/06/06 04:06:48;;;;;;;7.87;7.07;;;21.70;99.90;;;;;;4198109;27;1279083;-75
2022/06/06 04:08:50;;;;;;;7.15;6.45;;;21.70;99.90;;;;;;4233673;27;20218;-75
2022/06/06 04:11:08;;;;;;;7.60;6.80;;;21.70;99.90;;;;;;4245640;27;20209;-75
2022/06/06 04:13:22;;;;;;;7.30;6.60;;;21.60;99.90;;;;;;4247376;27;20281;-74
2022/06/06 04:15:32;;;;;;;8.02;6.57;;;21.70;99.90;;;;;;4247319;27;20216;-75
2022/06/06 04:17:43;;;;;;;7.30;6.60;;;21.60;99.90;;;;;;4246690;27;20213;-75
2022/06/06 04:20:00;;;;;;;7.03;6.38;;;21.60;99.90;;;;;;4231420;27;20234;-75
2022/06/06 04:22:15;;;;;;;7.57;6.25;;;21.70;99.90;;;;;;4240525;27;20611;-74
2022/06/06 04:24:31;;;;;;;7.82;6.88;;;21.70;99.90;;;;;;4247746;27;20663;-75
2022/06/06 04:26:45;;;;;;;7.72;6.30;;;21.70;99.90;;;;;;4247616;27;20616;-75
2022/06/06 04:28:57;;;;;;;7.75;6.55;;;21.60;99.90;;;;;;4246981;27;20568;-74
2022/06/06 04:31:12;;;;;;;7.18;6.47;;;21.70;99.90;;;;;;4246066;27;20313;-75
2022/06/06 04:33:22;;;;;;;7.47;6.63;;;21.70;99.90;;;;;;4246977;27;20217;-75
2022/06/06 04:35:30;;;;;;;7.13;6.30;;;21.70;99.90;;;;;;4242961;27;20217;-75
2022/06/06 04:37:39;;;;;;;6.82;6.13;;;21.70;99.90;;;;;;4238396;27;20208;-75
2022/06/06 04:39:49;;;;;;;7.18;6.47;;;21.60;99.90;;;;;;4246948;27;20261;-75
2022/06/06 04:41:59;;;;;;;7.18;6.40;;;21.70;99.90;;;;;;4247165;27;20208;-75
2022/06/06 04:44:10;;;;;;;7.05;6.38;;;21.60;99.90;;;;;;4237427;27;20261;-75
2022/06/06 04:46:20;;;;;;;6.60;5.95;;;21.70;99.90;;;;;;4246944;27;20212;-74
2022/06/06 04:48:22;;;;;;;6.65;6.05;;;21.60;99.90;;;;;;4246917;27;20238;-75
2022/06/06 04:50:25;;;;;;;6.10;5.50;;;21.70;99.90;;;;;;4246913;27;20204;-75
2022/06/06 04:52:29;;;;;;;6.50;5.90;;;21.60;99.90;;;;;;4241525;27;20206;-74
2022/06/06 04:54:38;;;;;;;6.93;5.93;;;21.60;99.90;;;;;;4230856;27;20294;-74
2022/06/06 04:56:40;;;;;;;6.15;5.45;;;21.60;99.90;;;;;;4244585;27;20208;-74
2022/06/06 04:58:47;;;;;;;7.13;6.43;;;21.70;99.90;;;;;;4246425;27;20714;-75
2022/06/06 05:00:49;;;;;;;6.53;5.93;;;21.60;99.90;;;;;;4246827;27;20262;-74
2022/06/06 05:02:52;;;;;;;6.90;6.22;;;21.60;99.90;;;;;;4246690;27;20718;-74
2022/06/06 05:04:54;;;;;;;5.82;5.30;;;21.70;99.90;;;;;;4246843;27;20262;-74
2022/06/06 05:07:22;;;;;;;7.05;6.35;;;21.70;99.90;;;;;;4246455;27;20285;-74
2022/06/06 05:09:48;;;;;;;6.30;5.70;;;21.70;99.90;;;;;;4246487;27;20266;-74
2022/06/06 05:12:04;;;;;;;6.63;5.93;;;21.60;99.90;;;;;;4243716;27;20217;-74
2022/06/06 05:14:32;;;;;;;6.40;5.80;;;21.70;99.90;;;;;;4242533;27;20217;-74
2022/06/06 05:16:47;;;;;;;6.40;5.65;;;21.70;99.90;;;;;;4241431;27;20217;-74
2022/06/06 05:19:10;;;;;;;6.13;5.38;;;21.70;99.90;;;;;;4236385;27;20217;-74
2022/06/06 05:21:25;;;;;;;6.30;5.70;;;21.70;99.90;;;;;;4245487;27;20237;-74
2022/06/06 05:23:52;;;;;;;5.90;5.40;;;21.70;99.90;;;;;;4246449;27;20224;-74
2022/06/06 05:26:14;;;;;;;5.82;5.25;;;21.60;99.90;;;;;;4237936;27;20597;-74
2022/06/06 05:28:41;;;;;;;5.78;5.25;;;21.70;99.90;;;;;;4246221;27;20261;-74
2022/06/06 05:30:54;;;;;;;6.00;5.20;;;21.70;99.90;;;;;;4207648;27;20262;-74
2022/06/06 05:33:06;;;;;;;6.75;5.50;;;21.70;99.90;;;;;;4246444;27;20257;-74
2022/06/06 05:35:18;;;;;;;5.82;5.32;;;21.70;99.90;;;;;;4245958;27;20213;-74
2022/06/06 05:37:37;;;;;;;5.90;5.40;;;21.70;99.90;;;;;;4246038;27;20213;-74
2022/06/06 05:39:50;;;;;;;8.00;5.22;;;21.70;99.90;;;;;;4245932;27;20217;-74
2022/06/06 05:42:10;;;;;;;5.35;4.85;;;21.70;99.90;;;;;;4239453;27;20209;-74
2022/06/06 05:44:22;;;;;;;5.72;5.22;;;21.70;99.90;;;;;;4237928;27;20209;-74
2022/06/06 05:46:41;;;;;;;6.10;4.72;;;21.70;99.90;;;;;;4246488;27;20277;-74
2022/06/06 05:49:06;;;;;;;5.28;4.85;;;21.70;99.90;;;;;;4245937;27;20228;-74
2022/06/06 05:51:21;;;;;;;6.85;5.43;;;21.70;99.90;;;;;;4246324;27;20270;-74
2022/06/06 05:53:51;;;;;;;5.25;4.75;;;21.70;99.90;;;;;;4236592;27;20213;-74
2022/06/06 05:56:12;;;;;;;5.47;4.97;;;21.70;99.90;;;;;;4246195;27;20205;-74
2022/06/06 05:58:46;;;;;;;5.30;4.80;;;21.70;99.90;;;;;;4245521;27;20221;-74
2022/06/06 06:01:03;;;;;;;6.97;5.00;;;21.70;99.90;;;;;;4245574;27;20277;-74
2022/06/06 06:03:38;;;;;;;5.20;4.70;;;21.70;99.90;;;;;;4245671;27;20621;-74
2022/06/06 06:05:56;;;;;;;5.20;4.70;;;21.80;99.90;;;;;;4224112;27;20217;-75
2022/06/06 06:08:09;;;;;;;5.32;4.78;;;21.80;99.90;;;;;;4237926;27;20240;-74
2022/06/06 06:10:15;;;;;;;4.78;4.30;;;21.80;99.90;;;;;;4245908;27;20265;-75
2022/06/06 06:12:37;;;;;;;5.50;4.40;;;21.80;99.90;;;;;;4246232;27;20653;-74
2022/06/06 06:14:48;;;;;;;5.10;4.60;;;21.70;99.90;;;;;;4245919;27;20229;-74
2022/06/06 06:16:56;;;;;;;4.65;4.25;;;21.80;99.90;;;;;;4239365;27;20617;-74
2022/06/06 06:19:07;;;;;;;4.90;4.50;;;21.80;99.90;;;;;;4243784;28;20269;-74
2022/06/06 06:21:16;;;;;;;4.75;4.35;;;21.80;99.90;;;;;;4245022;27;20240;-75
2022/06/06 06:23:23;;;;;;;5.78;4.30;;;21.80;99.90;;;;;;4246034;27;20224;-74
2022/06/06 06:25:27;;;;;;;4.70;4.20;;;21.80;99.90;;;;;;4245660;28;20694;-74
2022/06/06 06:27:33;;;;;;;4.88;4.38;;;21.80;99.90;;;;;;4246057;28;20274;-74
2022/06/06 06:29:35;;;;;;;5.00;4.50;;;21.80;99.90;;;;;;4245737;27;20209;-74
2022/06/06 06:31:49;;;;;;;4.63;3.75;;;21.90;99.90;;;;;;4245902;28;20258;-74
2022/06/06 06:34:14;;;;;;;4.13;3.83;;;21.80;99.90;;;;;;4245868;27;20274;-74
2022/06/06 06:36:30;;;;;;;4.93;4.47;;;21.90;99.90;;;;;;4246200;28;20329;-74
2022/06/06 06:38:45;;;;;;;4.88;4.38;;;21.90;99.90;;;;;;4245806;27;20208;-74
2022/06/06 06:40:54;;;;;;;6.47;4.10;;;21.90;99.90;;;;;;4242915;28;20286;-75
2022/06/06 06:43:07;;;;;;;4.68;4.22;;;21.90;99.90;;;;;;4245943;27;20321;-74
2022/06/06 06:45:15;;;;;;;4.50;3.72;;;21.90;99.90;;;;;;4245568;28;20273;-74
2022/06/06 06:47:21;;;;;;;4.40;4.00;;;21.90;99.90;;;;;;4232469;27;20262;-74
2022/06/06 06:49:35;;;;;;;4.72;3.78;;;21.90;99.90;;;;;;4245735;27;20602;-74
2022/06/06 06:51:44;;;;;;;5.32;4.72;;;22.00;99.90;;;;;;4245451;27;20332;-74
2022/06/06 06:54:09;;;;;;;4.78;4.30;;;22.00;99.90;;;;;;4242737;27;20250;-74
2022/06/06 06:56:25;;;;;;;4.88;3.72;;;22.00;99.90;;;;;;4245871;27;20204;-74
2022/06/06 06:58:50;;;;;;;5.15;4.20;;;22.00;99.90;;;;;;4245367;27;20209;-74
2022/06/06 07:00:56;;;;;;;4.63;4.22;;;22.00;99.90;;;;;;4248595;27;20237;-74
2022/06/06 07:10:42;;;;;;;3.90;3.53;;;22.00;99.90;;;;;;4243951;27;20628;-74
2022/06/06 07:13:07;;;;;;;3.58;3.28;;;22.00;99.90;;;;;;4248567;27;20277;-74
2022/06/06 07:15:20;;;;;;;3.92;3.55;;;22.00;99.90;;;;;;4243031;27;20270;-74
2022/06/06 07:17:24;;;;;;;5.13;3.30;;;22.00;99.90;;;;;;4248865;27;20267;-74
2022/06/06 07:19:33;;;;;;;3.85;3.50;;;22.10;99.90;;;;;;4233815;27;20217;-74
2022/06/06 07:21:36;;;;;;;4.25;3.85;;;22.10;99.90;;;;;;4237453;27;20685;-74
2022/06/06 07:23:42;;;;;;;3.92;3.35;;;22.10;99.90;;;;;;4248662;27;20209;-74
2022/06/06 07:25:46;;;;;;;4.38;3.78;;;22.10;99.90;;;;;;4248234;27;20739;-74
2022/06/06 07:27:49;;;;;;;4.07;3.67;;;22.10;99.90;;;;;;4237081;27;20274;-74
2022/06/06 07:29:51;;;;;;;3.55;3.25;;;22.10;99.90;;;;;;4248927;27;21152;-74
2022/06/06 07:32:20;;;;;;;4.55;3.28;;;22.10;99.90;;;;;;4241593;27;20257;-74
2022/06/06 07:34:46;;;;;;;3.80;3.40;;;22.10;99.90;;;;;;4241818;27;20238;-74
2022/06/06 07:37:05;;;;;;;3.63;3.33;;;22.10;99.90;;;;;;4248416;27;20613;-74
2022/06/06 07:39:18;;;;;;;3.17;2.90;;;22.10;99.90;;;;;;4247631;27;20225;-74
2022/06/06 07:41:29;;;;;;;3.58;3.28;;;22.10;99.90;;;;;;4239052;27;20241;-74
2022/06/06 07:43:46;;;;;;;4.13;3.72;;;22.10;99.90;;;;;;4243964;27;20216;-74
2022/06/06 07:45:51;;;;;;;4.65;3.20;;;22.10;99.90;;;;;;4236087;27;20212;-74
2022/06/06 07:48:14;;;;;;;3.40;3.03;;;22.20;99.90;;;;;;4248003;27;20209;-74
2022/06/06 07:50:21;;;;;;;3.75;3.35;;;22.20;99.90;;;;;;4247822;27;20694;-74
2022/06/06 07:52:32;;;;;;;3.53;3.22;;;22.20;99.90;;;;;;4244867;27;20649;-74
2022/06/06 07:54:47;;;;;;;3.35;2.88;;;22.20;99.90;;;;;;4243467;27;20278;-80
2022/06/06 07:56:56;;;;;;;3.65;2.95;;;22.20;99.90;;;;;;4248052;27;20264;-79
2022/06/06 07:59:06;;;;;;;3.65;2.97;;;22.20;99.90;;;;;;4248100;27;20208;-79
2022/06/06 08:01:14;;;;;;;3.53;3.20;;;22.20;99.90;;;;;;4247724;27;20657;-79
2022/06/06 08:03:20;;;;;;;3.67;2.92;;;22.20;99.90;;;;;;4251538;27;20648;-78
2022/06/06 08:05:39;;;;;;;3.40;3.00;;;22.20;99.90;;;;;;4236108;27;20258;-78
2022/06/06 08:07:49;;;;;;;3.05;2.70;;;22.20;99.90;;;;;;4247025;27;20233;-78
2022/06/06 08:10:18;;;;;;;2.78;2.53;;;22.20;99.90;;;;;;4247473;27;20213;-78
2022/06/06 08:12:34;;;;;;;4.05;2.80;;;22.10;99.90;;;;;;4247480;27;20209;-78
2022/06/06 08:14:57;;;;;;;2.88;2.67;;;22.20;99.90;;;;;;4247973;27;20269;-78
2022/06/06 08:17:07;;;;;;;3.28;2.85;;;22.20;99.90;;;;;;4247331;27;20212;-78
2022/06/06 08:19:26;;;;;;;3.00;2.67;;;22.20;99.90;;;;;;4244964;27;20221;-78
2022/06/06 08:21:35;;;;;;;2.90;2.53;;;22.20;99.90;;;;;;4235386;27;20213;-78
2022/06/06 08:23:38;;;;;;;4.35;2.92;;;22.20;99.90;;;;;;4248713;27;20216;-78
2022/06/06 08:25:44;;;;;;;3.47;2.75;;;22.30;99.90;;;;;;4247604;27;20265;-78
2022/06/06 08:27:50;;;;;;;2.70;2.50;;;22.30;99.90;;;;;;4240409;27;20205;-78
2022/06/06 08:29:53;;;;;;;3.53;2.70;;;22.30;99.90;;;;;;4251128;27;20721;-78
2022/06/06 08:31:56;;;;;;;2.75;2.55;;;22.30;99.90;;;;;;4247194;27;20713;-78
2022/06/06 08:33:58;;;;;;;3.05;2.50;;;22.30;99.90;;;;;;4246862;27;20209;-78
2022/06/06 08:36:13;;;;;;;3.22;2.90;;;22.40;99.90;;;;;;4239166;27;20209;-78
2022/06/06 08:38:30;;;;;;;2.80;2.60;;;22.40;99.90;;;;;;4246882;27;20209;-78
2022/06/06 08:40:56;;;;;;;3.25;2.95;;;22.40;99.90;;;;;;4250074;27;20204;-79
2022/06/06 08:43:02;;;;;;;2.97;2.70;;;22.40;99.90;;;;;;4241925;27;20796;-79
2022/06/06 08:45:23;;;;;;;3.35;2.78;;;22.40;99.90;;;;;;4245721;27;20223;-79
2022/06/06 08:47:31;;;;;;;3.47;2.95;;;22.40;99.90;;;;;;4242645;27;20709;-79
2022/06/06 08:52:36;;;;;;;3.00;2.70;;;22.50;99.90;;;;;;4223948;27;20201;-79
2022/06/06 08:55:12;;;;;;;2.97;2.55;;;22.50;99.90;;;;;;4248867;27;20209;-79
2022/06/06 08:57:28;;;;;;;4.10;2.50;;;22.50;99.90;;;;;;4247778;27;20237;-78
2022/06/06 09:00:03;;;;;;;3.70;2.65;;;22.50;99.90;;;;;;4235730;27;20209;-78
2022/06/06 09:02:49;;;;;;;2.60;2.30;;;22.50;99.90;;;;;;4245950;27;20233;-78
2022/06/06 09:05:16;;;;;;;2.78;2.58;;;22.50;99.90;;;;;;4246179;27;20664;-78
2022/06/06 09:08:03;;;;;;;2.78;2.42;;;22.50;99.90;;;;;;4245983;27;20237;-78
2022/06/06 09:10:32;;;;;;;2.58;2.20;;;22.50;99.90;;;;;;4240221;27;20209;-79
2022/06/06 09:13:10;;;;;;;3.28;2.95;;;22.50;99.90;;;;;;4247507;27;20205;-79
2022/06/06 09:15:52;;;;;;;3.00;2.33;;;22.50;99.90;;;;;;4244377;27;20216;-79
2022/06/06 09:18:23;;;;;;;2.35;2.15;;;22.50;99.90;;;;;;4246060;27;20217;-79
2022/06/06 09:20:59;;;;;;;2.55;2.35;;;22.50;99.90;;;;;;4249633;27;20217;-78
2022/06/06 09:23:24;;;;;;;2.78;2.22;;;22.50;99.90;;;;;;4245704;27;20285;-78
2022/06/06 09:25:37;;;;;;;2.33;2.13;;;22.50;99.90;;;;;;4247599;27;20209;-78
2022/06/06 09:28:36;;;;;;;3.20;2.35;;;22.50;99.90;;;;;;4246560;27;20277;-78
2022/06/06 09:31:20;;;;;;;2.92;2.20;;;22.50;99.90;;;;;;4190380;28;20256;-78
2022/06/06 09:34:13;;;;;;;2.38;2.17;;;22.50;99.90;;;;;;4194785;28;20707;-79
2022/06/06 09:36:23;;;;;;;2.95;2.20;;;22.50;99.90;;;;;;4160407;28;20222;-78
2022/06/06 09:38:46;;;;;;;2.47;2.15;;;22.40;99.90;;;;;;4193520;28;20272;-78
2022/06/06 09:41:04;;;;;;;3.42;2.28;;;22.40;99.90;;;;;;4202086;28;20210;-78
2022/06/06 09:43:17;;;;;;;3.00;2.17;;;22.40;99.90;;;;;;4192818;28;20238;-78
2022/06/06 09:45:30;;;;;;;2.63;2.20;;;22.40;99.90;;;;;;4198571;28;20631;-78
2022/06/06 09:47:53;;;;;;;2.42;1.98;;;22.40;99.90;;;;;;4187840;28;20218;-79
2022/06/06 09:50:28;;;;;;;2.50;2.20;;;22.50;99.90;;;;;;4184595;28;20212;-78
2022/06/06 09:53:06;;;;;;;2.22;2.03;;;22.50;99.90;;;;;;4184791;28;20207;-78
2022/06/06 10:01:30;;;;;;;3.33;2.00;;;22.50;99.90;;;;;;4172603;27;20199;-77
2022/06/06 10:04:05;;;;;;;2.22;1.95;;;22.40;99.90;;;;;;4257941;27;20233;-78
2022/06/06 10:06:31;;;;;;;2.20;2.00;;;22.40;99.90;;;;;;4188137;28;20656;-78
2022/06/06 10:09:13;;;;;;;2.08;1.88;;;22.50;99.90;;;;;;4214168;28;20287;-78
2022/06/06 10:11:49;;;;;;;2.67;1.80;;;22.50;99.90;;;;;;4198745;28;20218;-78
2022/06/06 10:14:03;;;;;;;2.03;1.83;;;22.40;99.90;;;;;;4199769;28;20254;-78
2022/06/06 10:16:21;;;;;;;2.25;2.00;;;22.40;99.90;;;;;;4201075;28;20700;-78
2022/06/06 10:18:56;;;;;;;3.92;2.05;;;22.50;99.90;;;;;;4204293;28;20226;-78
2022/06/06 10:21:24;;;;;;;3.80;2.08;;;22.40;99.90;;;;;;4217687;28;20254;-79
2022/06/06 10:23:40;;;;;;;2.83;1.77;;;22.50;99.90;;;;;;4205321;28;20238;-79
2022/06/06 10:26:02;;;;;;;3.17;1.90;;;22.50;99.90;;;;;;4211800;28;20263;-78
2022/06/06 10:28:20;;;;;;;2.08;1.85;;;22.50;99.90;;;;;;4221890;28;20270;-79
2022/06/06 10:30:29;;;;;;;2.45;2.10;;;22.50;99.90;;;;;;4208495;28;20213;-79
2022/06/06 10:33:07;;;;;;;1.90;1.80;;;22.50;99.90;;;;;;4210679;28;20210;-78
2022/06/06 10:35:24;;;;;;;2.67;2.15;;;22.50;99.90;;;;;;4209599;28;20218;-79
2022/06/06 10:37:50;;;;;;;2.10;1.63;;;22.50;99.90;;;;;;4214411;28;20215;-79
2022/06/06 10:40:25;;;;;;;2.72;2.30;;;22.50;99.90;;;;;;4204593;28;20265;-78
2022/06/06 10:42:49;;;;;;;1.98;1.77;;;22.50;99.90;;;;;;4185712;28;20213;-78
2022/06/06 10:45:24;;;;;;;3.20;1.92;;;22.50;99.90;;;;;;4205448;28;20222;-78
2022/06/06 10:47:53;;;;;;;2.55;1.70;;;22.50;99.90;;;;;;4195045;28;20264;-79
2022/06/06 10:50:04;;;;;;;1.95;1.60;;;22.40;99.90;;;;;;4202569;28;20613;-79
2022/06/06 10:52:49;;;;;;;2.65;1.73;;;22.40;99.90;;;;;;4210373;28;20255;-79
2022/06/06 10:55:28;;;;;;;3.22;1.50;;;22.30;99.90;;;;;;4204981;28;20607;-80
2022/06/06 10:58:07;;;;;;;2.33;1.50;;;22.30;99.90;;;;;;4186740;28;20222;-79
2022/06/06 11:00:38;;;;;;;4.53;1.55;;;22.30;99.90;;;;;;4214110;28;20256;-79
2022/06/06 11:03:13;;;;;;;3.22;1.70;;;22.20;99.90;;;;;;4208726;28;20214;-79
2022/06/06 11:05:43;;;;;;;2.20;1.50;;;22.20;99.90;;;;;;4210591;28;20287;-79
2022/06/06 11:08:12;;;;;;;2.47;1.33;;;22.20;99.90;;;;;;4212818;28;20295;-79
2022/06/06 11:10:40;;;;;;;3.67;1.30;;;22.20;99.90;;;;;;4215078;28;20210;-78
2022/06/06 11:13:17;;;;;;;2.33;1.58;;;22.20;99.90;;;;;;4211980;28;20253;-79
2022/06/06 11:15:19;;;;;;;2.65;1.20;;;22.30;99.90;;;;;;4208932;28;20235;-78
2022/06/06 11:18:09;;;;;;;3.17;1.15;;;22.30;99.90;;;;;;4205575;28;20259;-78
2022/06/06 11:20:54;;;;;;;2.15;1.20;;;22.30;99.90;;;;;;4217667;28;20240;-79
2022/06/06 11:23:01;;;;;;;2.55;1.25;;;22.30;99.90;;;;;;4223426;28;20303;-79
2022/06/06 11:25:19;;;;;;;1.77;1.10;;;22.30;99.90;;;;;;4224248;28;20222;-80
2022/06/06 11:27:47;;;;;;;1.25;0.90;;;22.30;99.90;;;;;;4214628;28;20268;-81
2022/06/06 11:30:08;;;;;;;2.45;1.50;;;22.30;99.90;;;;;;4214033;28;20222;-79
2022/06/06 11:32:35;;;;;;;3.33;1.00;;;22.30;99.90;;;;;;4219707;28;20210;-79
2022/06/06 11:35:16;;;;;;;4.40;1.40;;;22.20;99.90;;;;;;4221095;28;20307;-80
2022/06/06 11:37:59;;;;;;;3.80;1.58;;;22.30;99.90;;;;;;4207389;28;20833;-79
2022/06/06 11:40:41;;;;;;;3.28;1.23;;;22.20;99.90;;;;;;4213922;28;20214;-81
2022/06/06 11:43:13;;;;;;;2.72;1.33;;;22.20;99.90;;;;;;4212625;28;20255;-79
2022/06/06 11:45:34;;;;;;;3.58;0.98;;;22.20;99.90;;;;;;4213382;28;20659;-79
2022/06/06 11:48:03;;;;;;;3.13;1.15;;;22.20;99.90;;;;;;4213778;28;20642;-80
2022/06/06 11:50:42;;;;;;;2.20;1.23;;;22.20;99.90;;;;;;4220723;28;20260;-80
2022/06/06 11:53:31;;;;;;;2.53;1.20;;;22.20;99.90;;;;;;4211365;28;20260;-80
2022/06/06 11:55:45;;;;;;;4.00;1.40;;;22.20;99.90;;;;;;4209077;28;20215;-80
2022/06/06 11:58:29;;;;;;;3.78;1.48;;;22.20;99.90;;;;;;4203285;28;20210;-80
2022/06/06 12:00:43;;;;;;;2.55;1.38;;;22.20;99.90;;;;;;4212103;28;20263;-79